»·PEaware :: WAT361 KBFL-KSBA

WAT361 :: KBFL-KSBA

FLIGHT INFORMATION

Flight Status: Arrived
Operator:
Walker Air Transport
More flights by this operator :: More flights under this callsign
Pilot: Tanner H. (27250)
Aircraft: Unknown
(E35L)
More flights by this aircraft type
Origin: KBFL Meadows
United States
Destination: KSBA Santa Barbara Mun
United States
More flights between these airports :: More routes between these airports
Route: +MARIC5 MARIC STIGR V183 RZS
File this flight plan on PilotEdge
Remarks:
Altitude:
(Current/Filed)
18,000ft
Speed:
(Current/Filed)
400kts
Departed: 18-Sep-20 06:49 PM
Arrived: 18-Sep-20 07:09 PM
Distance/Time
Traveled:
72nm/0:20
Distance/Time
To Go:
Arrived

Flight Plot

Page will automatically refresh every two minutes.

Flight plan parsing failed; only flown route is shown


Map Options




Map Legend


Flown Route
Filed Route
Departure Airport
Arrival Airport
Navaid (VOR, NDB)
Fix

Horizontal Profiles

Position Reports

Time Latitude Longitude Heading Altitude Ground
Speed
18-Sep-20 18:23 35.437117 -119.055262 89 512ft 0kts
18-Sep-20 18:24 35.437117 -119.055262 89 512ft 0kts
18-Sep-20 18:25 35.437117 -119.055262 89 512ft 0kts
18-Sep-20 18:26 35.437117 -119.055262 89 512ft 0kts
18-Sep-20 18:27 35.437117 -119.055262 89 512ft 0kts
18-Sep-20 18:28 35.437117 -119.055262 89 512ft 0kts
18-Sep-20 18:29 35.437117 -119.055262 89 512ft 0kts
18-Sep-20 18:30 35.437117 -119.055262 89 512ft 0kts
18-Sep-20 18:31 35.437117 -119.055262 89 512ft 0kts
18-Sep-20 18:32 35.437141 -119.055860 111 512ft 1kts
18-Sep-20 18:33 35.437290 -119.056070 153 512ft 0kts
18-Sep-20 18:34 35.437278 -119.056063 153 512ft 0kts
18-Sep-20 18:35 35.437278 -119.056063 153 512ft 0kts
18-Sep-20 18:36 35.437278 -119.056063 153 512ft 0kts
18-Sep-20 18:37 35.437278 -119.056063 153 512ft 0kts
18-Sep-20 18:38 35.437278 -119.056063 153 512ft 0kts
18-Sep-20 18:40 35.437278 -119.056063 153 512ft 0kts
18-Sep-20 18:41 35.437278 -119.056063 153 512ft 0kts
18-Sep-20 18:42 35.437137 -119.055954 142 512ft 9kts
18-Sep-20 18:43 35.434453 -119.054638 137 512ft 16kts
18-Sep-20 18:44 35.431564 -119.051179 135 512ft 19kts
18-Sep-20 18:45 35.427242 -119.046000 137 512ft 13kts
18-Sep-20 18:46 35.425962 -119.044917 209 512ft 0kts
18-Sep-20 18:47 35.425962 -119.044917 209 512ft 0kts
18-Sep-20 18:48 35.425670 -119.045206 225 512ft 11kts
18-Sep-20 18:49 35.445686 -119.071060 310 1382ft 244kts
18-Sep-20 18:50 35.422202 -119.138979 211 5923ft 266kts
18-Sep-20 18:51 35.361423 -119.182024 213 5918ft 252kts
18-Sep-20 18:52 35.300867 -119.224946 213 5953ft 251kts
18-Sep-20 18:53 35.240317 -119.267784 213 5953ft 251kts
18-Sep-20 18:54 35.179669 -119.309996 212 5954ft 251kts
18-Sep-20 18:54 35.129252 -119.344993 212 5959ft 250kts
18-Sep-20 18:55 35.067800 -119.387557 212 7457ft 259kts
18-Sep-20 18:57 34.998055 -119.435777 212 15190ft 266kts
18-Sep-20 18:58 34.918436 -119.490627 212 16563ft 341kts
18-Sep-20 18:58 34.848639 -119.538791 211 15981ft 352kts
18-Sep-20 18:59 34.763578 -119.597246 211 15963ft 352kts
18-Sep-20 19:01 34.666595 -119.663720 210 13111ft 336kts
18-Sep-20 19:01 34.601893 -119.707956 210 10768ft 314kts
18-Sep-20 19:02 34.534946 -119.753629 211 8973ft 226kts
18-Sep-20 19:03 34.478170 -119.776474 183 7351ft 208kts
18-Sep-20 19:04 34.419898 -119.778243 173 3941ft 190kts
18-Sep-20 19:05 34.419025 -119.742151 334 1858ft 144kts
18-Sep-20 19:06 34.428985 -119.784862 266 889ft 140kts
18-Sep-20 19:07 34.427952 -119.832770 267 79ft 127kts
18-Sep-20 19:08 34.426942 -119.846394 174 20ft 11kts
18-Sep-20 19:09 34.426567 -119.844475 87 20ft 3kts
18-Sep-20 19:10 34.426654 -119.841008 87 20ft 16kts
18-Sep-20 19:11 34.425054 -119.837842 164 20ft 12kts
18-Sep-20 19:12 34.424888 -119.837176 115 20ft 0kts
18-Sep-20 19:13 34.424888 -119.837176 115 20ft 0kts
18-Sep-20 19:14 34.424873 -119.837138 115 20ft 0kts
18-Sep-20 19:15 34.424873 -119.837138 115 20ft 0kts

Navigation Log

Ident Type
Flight plan parsing failed, navigation log unavailable